Decoded Metar for EKKA (KARUP in DENMARK) (IATA:KRP) | Meteo·Mobile Aviation Weather
aviador You're here:

EKKA Decoded Metar

KARUP in DENMARK
Report Time2019-03-23 17:02:00
UTC Time2019-03-23 17:15:01
Flight Rules vfr VFR
Wind290° at 14 Gusting to 25 kt
W.Decomp.*RWY 27: 13.2 kt HW 4.6 kt RCW
RWY 32: 12.0 kt HW 7.2 kt LCW
RWY 22: 5.0 kt HW 13.1 kt RCW
W.Rank290° ranks 13
Current wind is above 290° avg. (11.0)
Visibility9999 m
Phenomena:N/A
Clouds:Scattered 029 Hf
Expected CloudBase > 2,400 ft AGL from Temp-Dew spread
CeilingNone
Temp07°C (ISA -8)
Dew Point01°C (66% RH)
AAT0.1°C
QNH1027 hPa
Density Alt-1,132 ft
Elevation171 ft
Report Wrong Elevation
Raw Report
EKKA 231702Z AUTO 29014G25KT 260V320 9999NDV SCT029/// 07/01 Q1027=

Extra information for EKKA:More info

Metar Taf Metar & Taf Last 4 Metars F.Rules Stats Wind Profile Meteogram Temp Stats Airport Information Weather charts Add Link Nearby VenuesMetar ALERT Operation Metar Decoded Social comments